createdAt,value
2019-05-09T00:02:34.686Z,99722.39
2019-05-09T00:05:05.072Z,99719.69
2019-05-09T00:07:34.732Z,99715.12
2019-05-09T00:10:05.591Z,99709.75
2019-05-09T00:12:35.241Z,99699.04
2019-05-09T00:15:06.705Z,99695.58
2019-05-09T00:17:36.365Z,99687.98
2019-05-09T00:20:08.170Z,99693.14
2019-05-09T00:22:37.836Z,99687.84
2019-05-09T00:25:07.890Z,99680.17
2019-05-09T00:27:37.768Z,99683.20
2019-05-09T00:30:08.005Z,99682.72
2019-05-09T00:32:39.396Z,99675.61
2019-05-09T00:35:23.375Z,99672.42
2019-05-09T00:37:54.938Z,99674.28
2019-05-09T00:40:25.208Z,99673.97
2019-05-09T00:42:55.127Z,99671.75
2019-05-09T00:45:43.771Z,99674.49
2019-05-09T00:48:14.524Z,99675.27
2019-05-09T00:50:44.147Z,99676.64
2019-05-09T00:53:13.927Z,99677.55
2019-05-09T00:55:43.721Z,99674.44
2019-05-09T00:58:13.682Z,99671.87
2019-05-09T01:00:43.950Z,99662.88
2019-05-09T01:03:14.315Z,99665.86
2019-05-09T01:05:47.240Z,99662.96
2019-05-09T01:08:16.605Z,99655.44
2019-05-09T01:10:47.685Z,99657.08
2019-05-09T01:13:18.828Z,99658.11
2019-05-09T01:15:49.883Z,99656.48
2019-05-09T01:18:19.537Z,99655.16
2019-05-09T01:20:49.261Z,99657.52
2019-05-09T01:23:20.348Z,99652.86
2019-05-09T01:25:52.958Z,99650.70
2019-05-09T01:28:23.216Z,99649.03
2019-05-09T01:30:53.307Z,99648.68
2019-05-09T01:33:24.730Z,99645.97
2019-05-09T01:35:54.852Z,99644.30
2019-05-09T01:38:24.522Z,99640.92
2019-05-09T01:40:54.138Z,99643.41
2019-05-09T01:43:24.409Z,99636.66
2019-05-09T01:45:54.174Z,99632.83
2019-05-09T01:48:23.827Z,99633.59
2019-05-09T01:50:53.829Z,99624.20
2019-05-09T01:53:25.115Z,99626.27
2019-05-09T01:55:57.785Z,99621.92
2019-05-09T01:58:29.146Z,99621.80
2019-05-09T02:00:59.345Z,99627.71
2019-05-09T02:03:29.140Z,99621.14
2019-05-09T02:05:58.797Z,99613.34
2019-05-09T02:08:28.447Z,99613.08
2019-05-09T02:10:58.104Z,99604.80
2019-05-09T02:13:27.731Z,99603.13
2019-05-09T02:16:14.694Z,99600.58
2019-05-09T02:18:45.989Z,99594.02
2019-05-09T02:21:15.641Z,99597.39
2019-05-09T02:23:45.273Z,99602.36
2019-05-09T02:26:15.393Z,99602.03
2019-05-09T02:28:45.015Z,99589.87
2019-05-09T02:31:16.289Z,99588.16
2019-05-09T02:33:46.123Z,99597.66
2019-05-09T02:36:18.753Z,99592.12
2019-05-09T02:38:48.763Z,99590.54
2019-05-09T02:41:19.726Z,99585.65
2019-05-09T02:43:49.974Z,99580.77
2019-05-09T02:46:29.406Z,99579.52
2019-05-09T02:48:59.492Z,99582.46
2019-05-09T02:51:29.552Z,99582.82
2019-05-09T02:53:59.201Z,99581.84
2019-05-09T02:56:29.827Z,99582.68
2019-05-09T02:59:10.153Z,99582.53
2019-05-09T03:01:58.753Z,99569.56
2019-05-09T03:04:28.646Z,99575.50
2019-05-09T03:06:59.653Z,99569.63
2019-05-09T03:09:29.662Z,99569.21
2019-05-09T03:12:19.533Z,99563.88
2019-05-09T03:14:31.670Z,99564.39
2019-05-09T03:17:01.325Z,99565.28
2019-05-09T03:19:31.043Z,99564.59
2019-05-09T03:22:13.766Z,99566.66
2019-05-09T03:24:43.393Z,99555.48
2019-05-09T03:27:18.725Z,99558.42
2019-05-09T03:29:50.053Z,99554.66
2019-05-09T03:32:21.096Z,99561.97
2019-05-09T03:34:50.716Z,99562.56
2019-05-09T03:37:20.369Z,99563.55
2019-05-09T03:39:49.999Z,99559.80
2019-05-09T03:42:22.998Z,99565.41
2019-05-09T03:44:50.976Z,99559.53
2019-05-09T03:47:27.901Z,99564.15
2019-05-09T03:50:11.001Z,99559.23
2019-05-09T03:52:40.730Z,99567.31
2019-05-09T03:55:13.277Z,99563.32
2019-05-09T03:57:44.651Z,99563.80
2019-05-09T04:00:14.640Z,99564.55
2019-05-09T04:02:44.264Z,99574.49
2019-05-09T04:05:13.918Z,99570.30
2019-05-09T04:07:43.548Z,99567.88
2019-05-09T04:10:13.218Z,99568.63
2019-05-09T04:12:53.889Z,99565.41
2019-05-09T04:15:14.265Z,99561.74
2019-05-09T04:17:44.374Z,99562.63
2019-05-09T04:20:17.536Z,99561.53
2019-05-09T04:22:49.039Z,99559.73
2019-05-09T04:25:19.977Z,99552.70
2019-05-09T04:27:51.237Z,99551.75
2019-05-09T04:30:20.892Z,99557.59
2019-05-09T04:32:50.516Z,99560.30
2019-05-09T04:35:20.803Z,99553.75
2019-05-09T04:37:50.458Z,99559.91
2019-05-09T04:40:22.264Z,99560.59
2019-05-09T04:42:51.893Z,99561.34
2019-05-09T04:45:33.121Z,99566.23
2019-05-09T04:48:00.457Z,99553.81
2019-05-09T04:50:30.155Z,99553.66
2019-05-09T04:55:48.509Z,99570.16
2019-05-09T04:58:19.277Z,99564.15
2019-05-09T05:01:07.365Z,99564.11
2019-05-09T05:03:37.824Z,99555.21
2019-05-09T05:06:07.760Z,99556.09
2019-05-09T05:08:37.622Z,99559.57
2019-05-09T05:11:07.575Z,99558.58
2019-05-09T05:13:38.376Z,99558.31
2019-05-09T05:16:08.435Z,99558.13
2019-05-09T05:18:38.119Z,99557.16
2019-05-09T05:21:07.953Z,99556.58
2019-05-09T05:23:50.947Z,99560.04
2019-05-09T05:26:21.748Z,99562.83
2019-05-09T05:28:51.388Z,99560.88
2019-05-09T05:31:21.052Z,99559.22
2019-05-09T05:33:53.908Z,99558.50
2019-05-09T05:36:24.030Z,99560.77
2019-05-09T05:38:53.948Z,99558.58
2019-05-09T05:41:23.608Z,99567.09
2019-05-09T05:43:53.288Z,99558.66
2019-05-09T05:46:30.547Z,99559.84
2019-05-09T05:49:00.388Z,99554.09
2019-05-09T05:51:31.719Z,99556.44
2019-05-09T05:54:02.075Z,99552.77
2019-05-09T05:56:31.705Z,99550.34
2019-05-09T05:59:01.366Z,99551.17
2019-05-09T06:01:31.459Z,99549.50
2019-05-09T06:04:01.123Z,99544.67
2019-05-09T06:06:33.072Z,99550.08
2019-05-09T06:09:03.816Z,99556.17
2019-05-09T06:11:33.444Z,99556.17
2019-05-09T06:14:10.957Z,99554.96
2019-05-09T06:16:37.824Z,99554.96
2019-05-09T06:19:09.009Z,99554.56
2019-05-09T06:21:38.762Z,99553.92
2019-05-09T06:24:08.642Z,99552.97
2019-05-09T06:26:38.254Z,99551.04
2019-05-09T06:29:08.233Z,99550.44
2019-05-09T06:31:37.856Z,99548.97
2019-05-09T06:34:08.370Z,99553.10
2019-05-09T06:36:39.073Z,99553.26
2019-05-09T06:39:10.506Z,99556.69
2019-05-09T06:41:40.103Z,99551.98
2019-05-09T06:44:18.181Z,99555.17
2019-05-09T06:46:48.253Z,99556.17
2019-05-09T06:49:27.626Z,99555.89
2019-05-09T06:51:50.952Z,99558.23
2019-05-09T06:54:20.603Z,99561.67
2019-05-09T06:56:50.233Z,99559.05
2019-05-09T06:59:19.897Z,99562.38
2019-05-09T07:01:53.876Z,99559.17
2019-05-09T07:04:25.184Z,99563.16
2019-05-09T07:06:58.743Z,99558.50
2019-05-09T07:09:35.770Z,99564.39
2019-05-09T07:12:07.649Z,99562.83
2019-05-09T07:14:41.363Z,99553.92
2019-05-09T07:17:08.618Z,99564.66
2019-05-09T07:19:38.669Z,99562.55
2019-05-09T07:22:18.416Z,99560.92
2019-05-09T07:25:10.443Z,99568.44
2019-05-09T07:27:42.498Z,99568.72
2019-05-09T07:30:21.342Z,99569.28
2019-05-09T07:33:01.637Z,99571.91
2019-05-09T07:35:31.723Z,99571.15
2019-05-09T07:38:01.381Z,99571.98
2019-05-09T07:40:31.039Z,99576.75
2019-05-09T07:43:00.698Z,99575.39
2019-05-09T07:45:30.322Z,99576.70
2019-05-09T07:48:00.317Z,99573.99
2019-05-09T07:50:29.945Z,99574.08
2019-05-09T07:53:00.222Z,99570.41
2019-05-09T07:55:29.869Z,99579.24
2019-05-09T07:57:59.515Z,99579.59
2019-05-09T08:00:35.284Z,99584.77
2019-05-09T08:03:08.336Z,99582.69
2019-05-09T08:05:38.504Z,99591.73
2019-05-09T08:08:11.762Z,99598.41
2019-05-09T08:10:41.397Z,99594.84
2019-05-09T08:13:12.050Z,99601.04
2019-05-09T08:15:41.886Z,99599.88
2019-05-09T08:18:11.643Z,99601.98
2019-05-09T08:20:41.351Z,99606.92
2019-05-09T08:23:11.080Z,99599.06
2019-05-09T08:25:40.923Z,99600.39
2019-05-09T08:28:10.716Z,99602.84
2019-05-09T08:30:40.659Z,99606.27
2019-05-09T08:33:10.307Z,99606.58
2019-05-09T08:35:39.951Z,99612.09
2019-05-09T08:38:09.614Z,99608.99
2019-05-09T08:40:39.249Z,99608.14
2019-05-09T08:43:08.917Z,99608.86
2019-05-09T08:45:38.561Z,99613.95
2019-05-09T08:48:09.425Z,99614.90
2019-05-09T08:50:48.139Z,99614.90
2019-05-09T08:53:18.937Z,99617.94
2019-05-09T08:55:48.690Z,99612.37
2019-05-09T08:58:19.673Z,99615.00
2019-05-09T09:00:49.795Z,99616.83
2019-05-09T09:03:19.477Z,99610.90
2019-05-09T09:05:49.105Z,99622.38
2019-05-09T09:08:18.771Z,99613.03
2019-05-09T09:10:48.922Z,99617.56
2019-05-09T09:13:18.668Z,99614.23
2019-05-09T09:16:08.564Z,99607.86
2019-05-09T09:18:19.664Z,99609.94
2019-05-09T09:20:49.320Z,99609.36
2019-05-09T09:23:19.065Z,99605.94
2019-05-09T09:25:49.007Z,99612.33
2019-05-09T09:28:18.640Z,99607.80
2019-05-09T09:30:48.690Z,99604.17
2019-05-09T09:33:18.316Z,99606.28
2019-05-09T09:35:49.411Z,99605.77
2019-05-09T09:38:19.040Z,99609.19
2019-05-09T09:40:48.800Z,99609.44
2019-05-09T09:43:18.432Z,99603.95
2019-05-09T09:45:57.715Z,99614.86
2019-05-09T09:48:19.505Z,99607.00
2019-05-09T09:50:51.723Z,99609.72
2019-05-09T09:53:20.490Z,99611.98
2019-05-09T09:55:50.170Z,99606.70
2019-05-09T09:58:19.813Z,99607.26
2019-05-09T10:00:51.411Z,99604.70
2019-05-09T10:03:21.129Z,99610.48
2019-05-09T10:05:51.296Z,99608.55
2019-05-09T10:08:21.164Z,99603.14
2019-05-09T10:10:50.842Z,99607.80
2019-05-09T10:13:20.524Z,99608.42
2019-05-09T10:15:54.535Z,99604.75
2019-05-09T10:18:38.223Z,99609.23
2019-05-09T10:21:15.413Z,99609.40
2019-05-09T10:23:45.036Z,99609.04
2019-05-09T10:26:14.723Z,99611.61
2019-05-09T10:28:45.510Z,99608.89
2019-05-09T10:31:15.389Z,99605.80
2019-05-09T10:33:45.015Z,99606.24
2019-05-09T10:36:14.687Z,99603.38
2019-05-09T10:38:44.336Z,99614.11
2019-05-09T10:41:13.998Z,99606.35
2019-05-09T10:43:45.265Z,99605.04
2019-05-09T10:46:30.001Z,99609.66
2019-05-09T10:49:04.543Z,99609.86
2019-05-09T10:51:34.210Z,99611.16
2019-05-09T10:54:03.955Z,99611.70
2019-05-09T10:56:38.163Z,99606.88
2019-05-09T10:59:07.839Z,99606.55
2019-05-09T11:01:38.360Z,99600.41
2019-05-09T11:04:08.533Z,99597.60
2019-05-09T11:06:38.585Z,99590.84
2019-05-09T11:09:09.948Z,99598.05
2019-05-09T11:11:39.910Z,99601.62
2019-05-09T11:14:09.534Z,99595.60
2019-05-09T11:16:45.721Z,99590.98
2019-05-09T11:19:10.529Z,99584.53
2019-05-09T11:21:40.178Z,99593.08
2019-05-09T11:24:09.951Z,99597.41
2019-05-09T11:26:40.118Z,99589.92
2019-05-09T11:29:09.822Z,99592.58
2019-05-09T11:31:39.460Z,99595.34
2019-05-09T11:34:09.237Z,99594.99
2019-05-09T11:36:38.844Z,99592.79
2019-05-09T11:39:10.734Z,99587.88
2019-05-09T11:41:40.360Z,99593.59
2019-05-09T11:44:10.129Z,99597.61
2019-05-09T11:46:39.755Z,99597.70
2019-05-09T11:49:09.416Z,99599.22
2019-05-09T11:51:39.051Z,99598.48
2019-05-09T11:54:09.273Z,99592.27
2019-05-09T11:56:38.924Z,99594.98
2019-05-09T11:59:10.022Z,99602.14
2019-05-09T12:01:40.016Z,99600.34
2019-05-09T12:04:09.884Z,99606.81
2019-05-09T12:06:39.512Z,99604.02
2019-05-09T12:09:09.647Z,99603.27
2019-05-09T12:11:44.223Z,99597.95
2019-05-09T12:14:10.807Z,99599.34
2019-05-09T12:16:40.429Z,99603.08
2019-05-09T12:19:10.087Z,99603.48
2019-05-09T12:21:47.610Z,99603.55
2019-05-09T12:24:11.589Z,99602.30
2019-05-09T12:26:41.215Z,99600.55
2019-05-09T12:29:10.887Z,99603.45
2019-05-09T12:31:40.512Z,99599.78
2019-05-09T12:34:10.192Z,99596.48
2019-05-09T12:36:40.117Z,99591.66
2019-05-09T12:39:09.754Z,99596.66
2019-05-09T12:41:39.873Z,99597.87
2019-05-09T12:44:09.690Z,99593.20
2019-05-09T12:46:39.666Z,99602.16
2019-05-09T12:49:09.343Z,99604.22
2019-05-09T12:51:38.969Z,99607.28
2019-05-09T12:54:08.870Z,99595.41
2019-05-09T12:56:38.749Z,99604.03
2019-05-09T12:59:08.943Z,99601.96
2019-05-09T13:01:40.779Z,99604.73
2019-05-09T13:04:10.025Z,99603.20
2019-05-09T13:06:39.693Z,99597.20
2019-05-09T13:09:09.334Z,99587.23
2019-05-09T13:11:39.305Z,99587.08
2019-05-09T13:14:10.112Z,99590.72
2019-05-09T13:16:49.036Z,99597.96
2019-05-09T13:19:14.671Z,99594.87
2019-05-09T13:21:44.328Z,99593.55
2019-05-09T13:24:13.958Z,99590.21
2019-05-09T13:26:47.824Z,99593.52
2019-05-09T13:29:16.650Z,99589.20
2019-05-09T13:31:48.310Z,99589.75
2019-05-09T13:34:18.860Z,99591.17
2019-05-09T13:36:49.093Z,99595.48
2019-05-09T13:39:18.734Z,99593.40
2019-05-09T13:41:48.376Z,99589.55
2019-05-09T13:44:18.348Z,99584.97
2019-05-09T13:46:48.829Z,99588.11
2019-05-09T13:49:19.389Z,99586.02
2019-05-09T13:51:58.572Z,99585.69
2019-05-09T13:54:20.526Z,99588.06
2019-05-09T13:56:56.985Z,99595.19
2019-05-09T13:59:21.643Z,99586.00
2019-05-09T14:01:51.312Z,99583.81
2019-05-09T14:04:21.432Z,99583.03
2019-05-09T14:06:51.783Z,99579.81
2019-05-09T14:09:21.412Z,99581.13
2019-05-09T14:11:52.067Z,99585.91
2019-05-09T14:14:21.699Z,99583.73
2019-05-09T14:16:51.360Z,99577.34
2019-05-09T14:19:35.921Z,99571.81
2019-05-09T14:21:52.361Z,99571.64
2019-05-09T14:24:22.070Z,99567.48
2019-05-09T14:26:51.718Z,99577.34
2019-05-09T14:29:21.336Z,99577.85
2019-05-09T14:31:51.091Z,99581.72
2019-05-09T14:34:21.120Z,99588.11
2019-05-09T14:36:50.776Z,99593.23
2019-05-09T14:39:20.427Z,99593.75
2019-05-09T14:41:50.069Z,99590.00
2019-05-09T14:44:19.697Z,99591.80
2019-05-09T14:46:49.371Z,99591.03
2019-05-09T14:49:19.584Z,99592.98
2019-05-09T14:51:50.044Z,99586.69
2019-05-09T14:54:19.855Z,99582.03
2019-05-09T14:56:49.513Z,99581.39
2019-05-09T14:59:19.150Z,99585.44
2019-05-09T15:01:49.503Z,99580.37
2019-05-09T15:04:19.403Z,99579.18
2019-05-09T15:06:49.061Z,99576.66
2019-05-09T15:09:18.681Z,99576.07
2019-05-09T15:11:48.699Z,99576.66
2019-05-09T15:14:18.455Z,99577.01
2019-05-09T15:16:48.656Z,99570.81
2019-05-09T15:19:18.568Z,99570.20
2019-05-09T15:21:48.915Z,99565.31
2019-05-09T15:24:19.407Z,99562.04
2019-05-09T15:26:49.317Z,99566.81
2019-05-09T15:29:19.283Z,99567.16
2019-05-09T15:31:54.265Z,99571.16
2019-05-09T15:34:20.357Z,99578.09
2019-05-09T15:36:51.149Z,99588.06
2019-05-09T15:39:20.803Z,99589.65
2019-05-09T15:41:50.432Z,99592.92
2019-05-09T15:44:20.108Z,99589.52
2019-05-09T15:47:03.435Z,99583.43
2019-05-09T15:49:33.110Z,99577.23
2019-05-09T15:52:03.109Z,99581.89
2019-05-09T15:54:32.812Z,99586.80
2019-05-09T15:57:11.820Z,99576.81
2019-05-09T15:59:43.189Z,99568.34
2019-05-09T16:02:12.977Z,99571.22
2019-05-09T16:04:43.096Z,99579.64
2019-05-09T16:07:13.193Z,99583.23
2019-05-09T16:09:42.852Z,99587.44
2019-05-09T16:12:12.480Z,99594.14
2019-05-09T16:14:42.176Z,99588.27
2019-05-09T16:17:11.900Z,99582.84
2019-05-09T16:19:41.559Z,99581.59
2019-05-09T16:22:11.183Z,99582.78
2019-05-09T16:24:43.347Z,99585.09
2019-05-09T16:27:13.065Z,99594.33
2019-05-09T16:29:43.027Z,99592.62
2019-05-09T16:32:12.752Z,99600.39
2019-05-09T16:34:42.412Z,99602.47
2019-05-09T16:37:12.067Z,99601.64
2019-05-09T16:39:43.083Z,99601.83
2019-05-09T16:42:12.730Z,99599.08
2019-05-09T16:44:42.398Z,99601.83
2019-05-09T16:47:12.025Z,99600.23
2019-05-09T16:49:41.693Z,99597.12
2019-05-09T16:52:11.323Z,99596.96
2019-05-09T16:54:42.701Z,99605.20
2019-05-09T16:57:12.433Z,99609.94
2019-05-09T16:59:42.259Z,99611.60
2019-05-09T17:02:21.800Z,99613.30
2019-05-09T17:04:43.310Z,99608.55
2019-05-09T17:07:15.375Z,99611.47
2019-05-09T17:09:48.363Z,99611.63
2019-05-09T17:12:18.617Z,99609.67
2019-05-09T17:14:50.081Z,99608.04
2019-05-09T17:17:19.785Z,99601.79
2019-05-09T17:19:50.740Z,99606.94
2019-05-09T17:22:40.689Z,99610.59
2019-05-09T17:25:10.586Z,99607.91
2019-05-09T17:27:40.203Z,99608.47
2019-05-09T17:30:10.197Z,99601.30
2019-05-09T17:32:40.115Z,99597.44
2019-05-09T17:35:09.864Z,99603.73
2019-05-09T17:37:39.543Z,99605.73
2019-05-09T17:40:10.190Z,99615.28
2019-05-09T17:42:39.821Z,99616.23
2019-05-09T17:45:09.495Z,99620.14
2019-05-09T17:47:39.191Z,99614.81
2019-05-09T17:50:08.986Z,99613.85
2019-05-09T17:52:38.617Z,99609.63
2019-05-09T17:55:08.295Z,99614.81
2019-05-09T17:57:38.802Z,99612.54
2019-05-09T18:00:10.671Z,99613.85
2019-05-09T18:02:40.303Z,99618.95
2019-05-09T18:05:10.116Z,99619.14
2019-05-09T18:07:39.747Z,99616.67
2019-05-09T18:10:09.879Z,99622.13
2019-05-09T18:12:39.523Z,99616.12
2019-05-09T18:15:09.434Z,99615.57
2019-05-09T18:17:39.390Z,99624.00
2019-05-09T18:20:09.325Z,99623.33
2019-05-09T18:22:38.951Z,99614.06
2019-05-09T18:25:09.939Z,99614.06
2019-05-09T18:27:39.603Z,99608.09
2019-05-09T18:30:10.083Z,99611.41
2019-05-09T18:32:41.682Z,99608.66
2019-05-09T18:35:13.173Z,99609.41
2019-05-09T18:37:43.074Z,99609.64
2019-05-09T18:40:13.450Z,99615.50
2019-05-09T18:42:47.568Z,99610.47
2019-05-09T18:45:17.746Z,99613.02
2019-05-09T18:47:50.754Z,99616.27
2019-05-09T18:50:22.230Z,99614.47
2019-05-09T18:52:55.001Z,99618.13
2019-05-09T18:55:24.770Z,99613.76
2019-05-09T18:57:56.799Z,99620.39
2019-05-09T19:00:27.273Z,99617.64
2019-05-09T19:02:57.080Z,99627.22
2019-05-09T19:05:27.156Z,99622.75
2019-05-09T19:07:58.887Z,99624.66
2019-05-09T19:10:28.629Z,99626.03
2019-05-09T19:12:58.285Z,99622.58
2019-05-09T19:15:41.598Z,99628.36
2019-05-09T19:18:12.902Z,99627.80
2019-05-09T19:20:50.251Z,99625.48
2019-05-09T19:23:21.631Z,99632.00
2019-05-09T19:25:53.488Z,99628.81
2019-05-09T19:28:25.074Z,99628.87
2019-05-09T19:30:54.860Z,99638.09
2019-05-09T19:33:24.834Z,99628.27
2019-05-09T19:35:54.608Z,99639.62
2019-05-09T19:38:24.404Z,99643.25
2019-05-09T19:40:54.220Z,99647.33
2019-05-09T19:43:23.951Z,99651.78
2019-05-09T19:45:53.669Z,99660.17
2019-05-09T19:48:26.154Z,99652.63
2019-05-09T19:50:58.857Z,99661.11
2019-05-09T19:53:28.673Z,99663.30
2019-05-09T19:55:58.543Z,99665.23
2019-05-09T19:58:28.294Z,99663.70
2019-05-09T20:00:58.052Z,99663.41
2019-05-09T20:03:27.815Z,99656.56
2019-05-09T20:06:00.576Z,99660.99
2019-05-09T20:08:34.118Z,99659.46
2019-05-09T20:11:06.889Z,99659.83
2019-05-09T20:13:54.250Z,99658.91
2019-05-09T20:16:24.263Z,99659.41
2019-05-09T20:18:54.069Z,99658.93
2019-05-09T20:21:23.882Z,99660.74
2019-05-09T20:23:53.655Z,99666.95
2019-05-09T20:26:23.438Z,99660.18
2019-05-09T20:28:53.128Z,99661.00
2019-05-09T20:31:23.286Z,99658.80
2019-05-09T20:33:53.255Z,99658.68
2019-05-09T20:36:22.932Z,99659.17
2019-05-09T20:38:53.484Z,99657.86
2019-05-09T20:41:26.926Z,99656.71
2019-05-09T20:43:56.785Z,99668.36
2019-05-09T20:46:26.717Z,99668.59
2019-05-09T20:48:56.570Z,99664.56
2019-05-09T20:51:26.388Z,99673.48
2019-05-09T20:53:56.332Z,99669.11
2019-05-09T20:56:26.143Z,99667.08
2019-05-09T20:58:56.071Z,99673.11
2019-05-09T21:01:25.887Z,99673.95
2019-05-09T21:04:00.176Z,99679.06
2019-05-09T21:06:27.262Z,99685.83
2019-05-09T21:08:57.098Z,99686.63
2019-05-09T21:11:26.917Z,99688.44
2019-05-09T21:13:56.948Z,99686.30
2019-05-09T21:16:26.760Z,99689.61
2019-05-09T21:18:56.596Z,99698.52
2019-05-09T21:21:26.401Z,99698.38
2019-05-09T21:23:56.242Z,99695.42
2019-05-09T21:26:26.052Z,99693.84
2019-05-09T21:28:55.889Z,99695.28
2019-05-09T21:31:25.711Z,99692.44
2019-05-09T21:33:55.766Z,99697.06
2019-05-09T21:36:25.423Z,99693.84
2019-05-09T21:38:55.057Z,99696.58
2019-05-09T21:41:24.721Z,99700.48
2019-05-09T21:43:54.349Z,99700.22
2019-05-09T21:46:24.014Z,99701.05
2019-05-09T21:48:53.640Z,99700.12
2019-05-09T21:51:23.300Z,99701.42
2019-05-09T21:53:52.928Z,99700.22
2019-05-09T21:56:22.585Z,99705.20
2019-05-09T21:58:52.215Z,99709.72
2019-05-09T22:01:21.945Z,99707.57
2019-05-09T22:03:51.813Z,99708.04
2019-05-09T22:06:21.469Z,99703.19
2019-05-09T22:08:51.145Z,99709.02
2019-05-09T22:11:20.909Z,99712.56
2019-05-09T22:13:50.536Z,99708.41
2019-05-09T22:16:20.196Z,99716.09
2019-05-09T22:18:49.892Z,99713.98
2019-05-09T22:21:22.469Z,99717.19
2019-05-09T22:23:56.622Z,99718.49
2019-05-09T22:26:23.466Z,99718.27
2019-05-09T22:28:53.091Z,99713.78
2019-05-09T22:31:22.748Z,99715.80
2019-05-09T22:33:52.383Z,99716.95
2019-05-09T22:36:22.035Z,99710.66
2019-05-09T22:38:51.670Z,99710.09
2019-05-09T22:41:21.319Z,99711.03
2019-05-09T22:43:50.948Z,99708.05
2019-05-09T22:46:20.609Z,99711.86
2019-05-09T22:48:50.240Z,99712.94
2019-05-09T22:51:19.992Z,99710.30
2019-05-09T22:53:49.621Z,99717.97
2019-05-09T22:56:19.323Z,99712.36
2019-05-09T22:58:48.938Z,99711.18
2019-05-09T23:01:18.700Z,99710.17
2019-05-09T23:03:48.522Z,99715.98
2019-05-09T23:06:18.278Z,99715.38
2019-05-09T23:08:48.004Z,99705.78
2019-05-09T23:11:17.753Z,99714.69
2019-05-09T23:13:53.408Z,99709.69
2019-05-09T23:16:25.638Z,99716.19
2019-05-09T23:18:55.623Z,99715.17
2019-05-09T23:21:27.019Z,99713.47
2019-05-09T23:24:04.418Z,99706.95
2019-05-09T23:26:34.200Z,99708.23
2019-05-09T23:29:03.896Z,99710.69
2019-05-09T23:31:35.791Z,99705.09
2019-05-09T23:34:05.656Z,99707.67
2019-05-09T23:36:35.709Z,99712.58
2019-05-09T23:39:19.752Z,99710.19
2019-05-09T23:41:49.505Z,99709.06
2019-05-09T23:44:19.150Z,99701.85
2019-05-09T23:46:48.778Z,99708.11
2019-05-09T23:49:18.442Z,99702.81
2019-05-09T23:51:48.829Z,99710.00
2019-05-09T23:54:46.427Z,99708.50
2019-05-09T23:57:29.654Z,99706.16
